createdAt,value
2023-03-02T00:00:53.596Z,33.60
2023-03-02T00:04:08.340Z,35.38
2023-03-02T00:07:24.859Z,35.03
2023-03-02T00:10:40.264Z,36.13
2023-03-02T00:14:06.513Z,36.30
2023-03-02T00:17:18.534Z,34.93
2023-03-02T00:20:41.522Z,37.10
2023-03-02T00:23:54.556Z,38.35
2023-03-02T00:27:09.109Z,36.20
2023-03-02T00:30:22.765Z,37.48
2023-03-02T00:33:34.658Z,36.85
2023-03-02T00:36:48.636Z,40.58
2023-03-02T00:40:01.006Z,39.28
2023-03-02T00:43:12.997Z,41.08
2023-03-02T00:46:28.655Z,42.40
2023-03-02T00:49:40.921Z,39.90
2023-03-02T00:52:52.813Z,43.00
2023-03-02T00:56:05.185Z,42.10
2023-03-02T00:59:21.652Z,43.03
2023-03-02T01:02:33.903Z,42.05
2023-03-02T01:05:46.135Z,40.43
2023-03-02T01:08:57.978Z,39.25
2023-03-02T01:12:11.509Z,41.85
2023-03-02T01:15:23.937Z,41.05
2023-03-02T01:18:38.240Z,38.30
2023-03-02T01:21:50.937Z,41.40
2023-03-02T01:25:04.010Z,39.78
2023-03-02T01:28:15.932Z,40.68
2023-03-02T01:31:30.530Z,41.10
2023-03-02T01:34:42.733Z,42.48
2023-03-02T01:37:54.640Z,39.60
2023-03-02T01:41:06.554Z,41.55
2023-03-02T01:44:45.050Z,40.33
2023-03-02T01:47:57.082Z,41.83
2023-03-02T01:51:13.140Z,41.20
2023-03-02T01:54:28.916Z,44.00
2023-03-02T01:57:47.503Z,41.05
2023-03-02T02:01:00.953Z,40.45
2023-03-02T02:04:14.250Z,42.15
2023-03-02T02:07:27.955Z,40.68
2023-03-02T02:10:42.564Z,39.58
2023-03-02T02:13:54.959Z,41.03
2023-03-02T02:17:06.953Z,43.00
2023-03-02T02:20:28.130Z,43.25
2023-03-02T02:23:47.110Z,44.60
2023-03-02T02:27:03.481Z,40.78
2023-03-02T02:30:21.432Z,42.20
2023-03-02T02:33:34.368Z,41.35
2023-03-02T02:36:51.293Z,39.70
2023-03-02T02:40:05.871Z,41.85
2023-03-02T02:43:22.156Z,41.95
2023-03-02T02:46:35.002Z,42.40
2023-03-02T02:49:48.323Z,41.63
2023-03-02T02:53:05.473Z,44.05
2023-03-02T02:56:19.560Z,43.68
2023-03-02T02:59:36.192Z,44.30
2023-03-02T03:02:52.154Z,44.93
2023-03-02T03:06:07.832Z,46.18
2023-03-02T03:09:20.055Z,46.95
2023-03-02T03:12:35.379Z,46.13
2023-03-02T03:15:47.893Z,46.53
2023-03-02T03:19:02.806Z,45.78
2023-03-02T03:22:16.419Z,46.30
2023-03-02T03:25:34.821Z,46.88
2023-03-02T03:28:47.112Z,45.63
2023-03-02T03:32:01.607Z,47.13
2023-03-02T03:35:16.230Z,47.55
2023-03-02T03:38:28.298Z,46.20
2023-03-02T03:41:40.796Z,47.80
2023-03-02T03:44:53.062Z,48.68
2023-03-02T03:48:06.532Z,47.30
2023-03-02T03:51:19.202Z,48.50
2023-03-02T03:54:31.517Z,48.05
2023-03-02T03:57:46.968Z,47.03
2023-03-02T04:00:59.677Z,46.90
2023-03-02T04:04:15.103Z,44.90
2023-03-02T04:07:27.352Z,47.93
2023-03-02T04:10:39.775Z,48.98
2023-03-02T04:13:52.661Z,48.63
2023-03-02T04:17:05.554Z,49.88
2023-03-02T04:20:22.128Z,47.63
2023-03-02T04:23:36.068Z,49.55
2023-03-02T04:26:50.729Z,50.13
2023-03-02T04:30:02.861Z,50.23
2023-03-02T04:33:17.239Z,49.83
2023-03-02T04:36:32.846Z,51.65
2023-03-02T04:39:49.676Z,51.75
2023-03-02T04:43:05.728Z,51.20
2023-03-02T04:46:44.793Z,52.35
2023-03-02T04:50:05.936Z,52.60
2023-03-02T04:53:19.677Z,54.15
2023-03-02T04:56:32.483Z,53.33
2023-03-02T04:59:45.000Z,53.45
2023-03-02T05:03:24.302Z,53.83
2023-03-02T05:07:46.877Z,54.40
2023-03-02T05:11:19.213Z,54.58
2023-03-02T05:14:45.851Z,54.50
2023-03-02T05:18:15.754Z,54.00
2023-03-02T05:21:30.399Z,52.90
2023-03-02T05:24:42.387Z,54.43
2023-03-02T05:32:48.892Z,53.40
2023-03-02T05:56:03.328Z,53.45
2023-03-02T06:16:40.821Z,55.23
2023-03-02T06:19:52.917Z,61.23
2023-03-02T06:23:04.982Z,60.18
2023-03-02T06:26:18.326Z,59.10
2023-03-02T06:29:30.764Z,58.03
2023-03-02T06:32:42.820Z,57.05
2023-03-02T06:35:55.719Z,58.08
2023-03-02T06:39:08.531Z,59.40
2023-03-02T06:42:20.402Z,57.83
2023-03-02T06:45:33.838Z,58.93
2023-03-02T06:48:46.197Z,71.20
2023-03-02T06:51:58.806Z,73.70
2023-03-02T06:55:12.643Z,61.90
2023-03-02T06:58:25.016Z,59.08
2023-03-02T07:01:36.978Z,59.25
2023-03-02T07:04:49.032Z,57.35
2023-03-02T07:08:01.159Z,58.65
2023-03-02T07:11:17.815Z,60.58
2023-03-02T07:14:30.081Z,62.85
2023-03-02T07:17:42.764Z,63.80
2023-03-02T07:20:54.826Z,60.63
2023-03-02T07:24:06.918Z,63.48
2023-03-02T07:27:18.929Z,65.78
2023-03-02T07:30:31.165Z,61.45
2023-03-02T07:33:44.113Z,64.53
2023-03-02T07:36:56.676Z,64.40
2023-03-02T07:40:09.978Z,76.05
2023-03-02T07:43:24.076Z,83.65
2023-03-02T07:46:36.029Z,63.18
2023-03-02T07:49:48.312Z,63.50
2023-03-02T07:53:00.361Z,63.58
2023-03-02T07:56:17.267Z,64.10
2023-03-02T07:59:29.426Z,64.53
2023-03-02T08:02:41.784Z,59.15
2023-03-02T08:05:56.785Z,65.10
2023-03-02T08:09:11.515Z,64.80
2023-03-02T08:12:23.408Z,61.38
2023-03-02T08:15:35.496Z,60.98
2023-03-02T08:18:48.519Z,59.95
2023-03-02T08:22:00.872Z,60.13
2023-03-02T08:25:14.826Z,62.90
2023-03-02T08:28:27.652Z,59.78
2023-03-02T08:31:40.070Z,58.75
2023-03-02T08:34:52.937Z,59.10
2023-03-02T08:38:05.026Z,60.20
2023-03-02T08:41:21.250Z,61.33
2023-03-02T08:44:33.301Z,59.78
2023-03-02T08:47:45.412Z,57.48
2023-03-02T08:51:08.660Z,55.00
2023-03-02T08:54:20.660Z,59.30
2023-03-02T08:57:34.841Z,57.18
2023-03-02T09:00:47.044Z,47.98
2023-03-02T09:04:00.711Z,44.68
2023-03-02T09:07:16.533Z,50.50
2023-03-02T09:10:28.671Z,86.70
2023-03-02T09:13:41.369Z,48.38
2023-03-02T09:16:53.820Z,47.43
2023-03-02T09:20:05.947Z,52.30
2023-03-02T09:23:17.921Z,54.65
2023-03-02T09:26:30.688Z,53.63
2023-03-02T09:29:42.759Z,47.90
2023-03-02T09:32:54.950Z,48.53
2023-03-02T09:36:11.581Z,45.40
2023-03-02T09:39:23.697Z,45.60
2023-03-02T09:42:49.610Z,42.93
2023-03-02T09:46:13.023Z,42.23
2023-03-02T09:49:32.139Z,42.58
2023-03-02T09:52:50.099Z,49.30
2023-03-02T09:56:05.651Z,68.80
2023-03-02T09:59:27.431Z,47.08
2023-03-02T10:02:45.217Z,43.00
2023-03-02T10:05:59.253Z,43.90
2023-03-02T10:09:12.636Z,40.18
2023-03-02T10:12:49.224Z,40.53
2023-03-02T10:16:16.654Z,38.85
2023-03-02T10:22:49.002Z,37.58
2023-03-02T10:26:08.115Z,44.10
2023-03-02T10:29:34.364Z,41.73
2023-03-02T10:32:51.097Z,43.00
2023-03-02T10:36:03.139Z,38.93
2023-03-02T10:39:21.389Z,40.55
2023-03-02T10:42:40.258Z,42.83
2023-03-02T10:45:54.717Z,38.45
2023-03-02T10:49:06.818Z,38.90
2023-03-02T10:52:23.280Z,36.73
2023-03-02T10:55:35.736Z,38.45
2023-03-02T10:58:47.690Z,48.35
2023-03-02T11:02:08.290Z,41.33
2023-03-02T11:05:33.862Z,39.25
2023-03-02T11:08:45.856Z,33.75
2023-03-02T11:12:02.370Z,29.95
2023-03-02T11:15:33.242Z,31.93
2023-03-02T11:18:51.401Z,30.18
2023-03-02T11:22:10.065Z,26.70
2023-03-02T11:25:28.057Z,27.03
2023-03-02T11:28:51.687Z,31.88
2023-03-02T11:32:10.487Z,25.58
2023-03-02T11:35:29.317Z,28.38
2023-03-02T11:38:47.461Z,21.13
2023-03-02T11:41:59.537Z,25.23
2023-03-02T11:45:23.762Z,24.83
2023-03-02T11:48:40.785Z,26.83
2023-03-02T11:55:20.503Z,19.35
2023-03-02T11:58:35.649Z,28.73
2023-03-02T12:01:48.380Z,28.95
2023-03-02T12:05:14.345Z,24.25
2023-03-02T12:08:43.813Z,24.43
2023-03-02T12:12:02.109Z,21.45
2023-03-02T12:15:43.713Z,20.83
2023-03-02T12:18:56.755Z,17.93
2023-03-02T12:22:13.495Z,17.25
2023-03-02T12:25:48.161Z,17.80
2023-03-02T12:29:09.338Z,20.52
2023-03-02T12:32:31.399Z,18.15
2023-03-02T12:35:44.346Z,15.70
2023-03-02T12:39:11.553Z,17.35
2023-03-02T12:42:41.800Z,20.43
2023-03-02T12:46:10.824Z,20.65
2023-03-02T12:49:50.158Z,20.65
2023-03-02T12:53:11.585Z,19.75
2023-03-02T12:56:31.452Z,19.75
2023-03-02T12:59:43.669Z,19.90
2023-03-02T13:02:58.477Z,20.65
2023-03-02T13:06:20.438Z,20.52
2023-03-02T13:09:32.841Z,19.00
2023-03-02T13:12:50.016Z,20.28
2023-03-02T13:16:05.088Z,21.18
2023-03-02T13:19:22.261Z,20.58
2023-03-02T13:22:35.233Z,19.73
2023-03-02T13:25:56.323Z,20.13
2023-03-02T13:29:23.144Z,20.30
2023-03-02T13:32:44.947Z,20.95
2023-03-02T13:35:57.333Z,19.85
2023-03-02T13:39:12.182Z,19.80
2023-03-02T13:42:36.670Z,20.18
2023-03-02T13:45:58.205Z,21.23
2023-03-02T13:49:12.833Z,20.78
2023-03-02T13:52:32.482Z,21.45
2023-03-02T13:55:45.690Z,21.88
2023-03-02T13:58:57.745Z,21.68
2023-03-02T14:02:13.595Z,20.98
2023-03-02T14:05:30.938Z,21.05
2023-03-02T14:08:43.089Z,20.28
2023-03-02T14:11:59.666Z,19.68
2023-03-02T14:15:17.247Z,20.93
2023-03-02T14:18:42.064Z,20.88
2023-03-02T14:21:54.385Z,20.58
2023-03-02T14:25:06.358Z,19.90
2023-03-02T14:28:20.801Z,20.60
2023-03-02T14:31:33.556Z,19.80
2023-03-02T14:34:46.601Z,20.43
2023-03-02T14:37:58.896Z,18.70
2023-03-02T14:41:11.498Z,19.15
2023-03-02T14:44:23.688Z,19.65
2023-03-02T14:47:35.670Z,19.30
2023-03-02T14:50:51.543Z,19.70
2023-03-02T14:54:07.851Z,19.30
2023-03-02T14:57:26.231Z,19.70
2023-03-02T15:00:38.602Z,20.33
2023-03-02T15:03:50.511Z,20.95
2023-03-02T15:07:02.553Z,20.90
2023-03-02T15:10:19.289Z,21.08
2023-03-02T15:13:31.459Z,21.38
2023-03-02T15:16:44.176Z,21.40
2023-03-02T15:19:57.572Z,21.73
2023-03-02T15:23:10.139Z,21.08
2023-03-02T15:26:22.889Z,20.58
2023-03-02T15:29:35.465Z,21.05
2023-03-02T15:32:47.893Z,20.35
2023-03-02T15:36:06.330Z,22.20
2023-03-02T15:39:21.237Z,21.35
2023-03-02T15:42:33.611Z,20.83
2023-03-02T15:45:54.644Z,26.43
2023-03-02T15:49:07.187Z,44.35
2023-03-02T15:52:20.972Z,24.70
2023-03-02T15:55:36.078Z,21.58
2023-03-02T15:58:53.672Z,21.30
2023-03-02T16:02:06.594Z,20.95
2023-03-02T16:08:18.990Z,20.60
2023-03-02T16:11:31.035Z,22.08
2023-03-02T16:14:43.046Z,19.98
2023-03-02T16:17:55.389Z,20.43
2023-03-02T16:21:07.835Z,20.18
2023-03-02T16:24:20.228Z,20.85
2023-03-02T16:27:32.454Z,20.75
2023-03-02T16:30:45.890Z,20.45
2023-03-02T16:33:59.124Z,20.70
2023-03-02T16:37:14.236Z,21.90
2023-03-02T16:40:29.900Z,21.83
2023-03-02T16:43:42.119Z,23.20
2023-03-02T16:46:57.003Z,23.15
2023-03-02T16:50:09.436Z,21.60
2023-03-02T16:53:21.971Z,21.73
2023-03-02T16:56:34.548Z,23.40
2023-03-02T16:59:46.777Z,24.38
2023-03-02T17:02:59.510Z,22.73
2023-03-02T17:06:13.801Z,22.23
2023-03-02T17:09:25.824Z,22.90
2023-03-02T17:12:37.722Z,23.55
2023-03-02T17:15:50.326Z,24.38
2023-03-02T17:19:02.744Z,23.73
2023-03-02T17:22:15.111Z,24.33
2023-03-02T17:25:28.148Z,24.25
2023-03-02T17:28:40.478Z,23.43
2023-03-02T17:31:52.570Z,25.60
2023-03-02T17:35:07.517Z,25.35
2023-03-02T17:38:20.347Z,26.45
2023-03-02T17:41:35.053Z,25.78
2023-03-02T17:44:48.326Z,28.73
2023-03-02T17:48:05.479Z,25.98
2023-03-02T17:51:20.510Z,28.00
2023-03-02T17:54:32.945Z,28.70
2023-03-02T17:57:46.484Z,29.90
2023-03-02T18:00:58.736Z,30.25
2023-03-02T18:04:11.181Z,31.90
2023-03-02T18:07:23.608Z,41.65
2023-03-02T18:10:35.797Z,35.85
2023-03-02T18:13:47.910Z,35.13
2023-03-02T18:17:00.400Z,38.15
2023-03-02T18:20:14.789Z,39.85
2023-03-02T18:23:27.151Z,38.80
2023-03-02T18:26:39.539Z,40.50
2023-03-02T18:29:51.761Z,38.10
2023-03-02T18:33:03.782Z,37.93
2023-03-02T18:36:16.873Z,37.65
2023-03-02T18:39:28.899Z,38.75
2023-03-02T18:42:41.190Z,39.85
2023-03-02T18:45:53.171Z,40.68
2023-03-02T18:49:05.891Z,44.25
2023-03-02T18:52:18.505Z,42.43
2023-03-02T18:55:31.571Z,43.58
2023-03-02T18:58:43.935Z,42.83
2023-03-02T19:01:56.177Z,45.95
2023-03-02T19:05:08.867Z,47.85
2023-03-02T19:08:22.889Z,48.48
2023-03-02T19:11:35.073Z,50.43
2023-03-02T19:14:47.269Z,50.95
2023-03-02T19:17:59.438Z,50.08
2023-03-02T19:21:12.759Z,52.10
2023-03-02T19:24:24.861Z,56.23
2023-03-02T19:27:37.846Z,52.03
2023-03-02T19:30:50.032Z,54.23
2023-03-02T19:34:04.171Z,57.10
2023-03-02T19:37:18.616Z,57.43
2023-03-02T19:40:34.600Z,52.35
2023-03-02T19:43:47.183Z,58.55
2023-03-02T19:46:59.825Z,57.13
2023-03-02T19:59:14.076Z,60.98
2023-03-02T20:02:28.029Z,68.50
2023-03-02T20:05:41.277Z,65.43
2023-03-02T20:08:56.140Z,75.30
2023-03-02T20:12:18.482Z,71.10
2023-03-02T20:15:32.396Z,70.03
2023-03-02T20:18:45.696Z,67.03
2023-03-02T20:22:02.737Z,66.08
2023-03-02T20:32:20.369Z,68.25
2023-03-02T20:39:02.647Z,68.85
2023-03-02T20:42:16.149Z,66.60
2023-03-02T20:45:28.472Z,67.75
2023-03-02T20:48:41.610Z,66.53
2023-03-02T20:51:57.357Z,69.68
2023-03-02T20:55:10.538Z,71.13
2023-03-02T20:58:22.640Z,67.43
2023-03-02T21:01:34.910Z,70.13
2023-03-02T21:04:47.923Z,67.70
2023-03-02T21:08:00.298Z,65.78
2023-03-02T21:11:15.652Z,66.55
2023-03-02T21:14:27.973Z,65.60
2023-03-02T21:17:41.521Z,68.03
2023-03-02T21:20:56.121Z,68.03
2023-03-02T21:24:09.179Z,65.00
2023-03-02T21:27:21.459Z,62.80
2023-03-02T21:30:38.202Z,61.63
2023-03-02T21:33:51.839Z,61.65
2023-03-02T21:37:04.883Z,59.60
2023-03-02T21:40:24.944Z,61.13
2023-03-02T21:43:37.473Z,59.43
2023-03-02T21:46:51.509Z,59.28
2023-03-02T21:50:09.649Z,60.23
2023-03-02T21:53:22.619Z,56.10
2023-03-02T21:56:36.601Z,58.73
2023-03-02T21:59:51.347Z,56.93
2023-03-02T22:03:04.892Z,58.78
2023-03-02T22:06:23.244Z,56.85
2023-03-02T22:09:41.109Z,57.95
2023-03-02T22:12:54.682Z,56.50
2023-03-02T22:16:17.890Z,54.28
2023-03-02T22:19:36.073Z,54.80
2023-03-02T22:22:48.564Z,54.40
2023-03-02T22:26:05.985Z,54.30
2023-03-02T22:29:24.911Z,52.60
2023-03-02T22:32:40.611Z,51.00
2023-03-02T22:35:53.391Z,51.25
2023-03-02T22:39:14.382Z,54.15
2023-03-02T22:42:31.198Z,55.03
2023-03-02T22:46:01.317Z,55.48
2023-03-02T22:49:21.991Z,53.65
2023-03-02T22:52:46.872Z,51.10
2023-03-02T23:11:25.212Z,53.98
2023-03-02T23:14:46.015Z,54.20
2023-03-02T23:36:33.254Z,56.48
